Time;durP1;ratioP1;P1;durP2;ratioP2;P2;SDS_P1;SDS_P2;PMS_P1;PMS_P2;Temp;Humidity;BMP_temperature;BMP_pressure;BME280_temperature;BME280_humidity;BME280_pressure;Samples;Min_cycle;Max_cycle;Signal;HPM_P1;HPM_P2
2023/09/28 00:02:14;;;;;;;4.30;3.97;;;20.50;96.20;;;;;;4974314;28;20456;-83
2023/09/28 00:04:47;;;;;;;4.37;3.97;;;20.60;96.30;;;;;;4975510;28;20974;-85
2023/09/28 00:07:22;;;;;;;3.93;3.63;;;20.80;95.80;;;;;;4972377;28;20507;-87
2023/09/28 00:09:59;;;;;;;4.93;4.53;;;20.90;95.70;;;;;;4970476;28;20463;-85
2023/09/28 00:12:32;;;;;;;4.17;3.43;;;20.80;95.60;;;;;;4968514;28;20471;-84
2023/09/28 00:15:01;;;;;;;4.70;4.30;;;20.70;96.00;;;;;;4977099;28;20451;-90
2023/09/28 00:17:47;;;;;;;4.10;3.70;;;20.80;95.80;;;;;;4978023;28;20459;-85
2023/09/28 00:20:24;;;;;;;4.47;4.17;;;20.80;95.60;;;;;;4976143;28;22592;-85
2023/09/28 00:23:18;;;;;;;4.20;3.90;;;20.80;95.40;;;;;;4974740;28;20509;-83
2023/09/28 00:28:53;;;;;;;3.40;3.20;;;20.60;95.50;;;;;;4953737;28;20523;-84
2023/09/28 00:31:38;;;;;;;4.40;4.10;;;20.60;96.00;;;;;;4954741;28;20551;-85
2023/09/28 00:34:16;;;;;;;4.23;3.90;;;20.80;95.80;;;;;;4952365;28;20513;-82
2023/09/28 00:36:45;;;;;;;4.30;4.00;;;20.90;95.80;;;;;;4956031;28;20484;-86
2023/09/28 00:39:22;;;;;;;4.40;4.00;;;21.00;95.60;;;;;;4956856;28;20923;-85
2023/09/28 00:41:55;;;;;;;3.60;3.30;;;20.80;95.60;;;;;;4953780;28;20481;-86
2023/09/28 00:44:30;;;;;;;3.70;3.40;;;20.60;95.90;;;;;;4954455;28;20788;-84
2023/09/28 00:47:14;;;;;;;4.73;4.33;;;20.50;96.20;;;;;;4960249;28;21152;-86
2023/09/28 00:49:48;;;;;;;4.87;3.20;;;20.50;96.40;;;;;;4958244;28;20448;-86
2023/09/28 00:52:30;;;;;;;5.30;4.90;;;20.60;96.60;;;;;;4966796;28;20460;-88
2023/09/28 00:55:00;;;;;;;3.70;3.40;;;20.80;95.90;;;;;;4953276;28;20511;-87
2023/09/28 00:57:34;;;;;;;4.47;4.10;;;20.70;95.90;;;;;;4958614;28;20619;-86
2023/09/28 01:00:26;;;;;;;4.50;4.10;;;20.90;95.90;;;;;;4961041;28;20462;-85
2023/09/28 01:03:03;;;;;;;4.10;3.80;;;20.80;95.90;;;;;;4959244;28;20463;-88
2023/09/28 01:05:48;;;;;;;4.27;3.90;;;21.00;96.10;;;;;;4956748;28;20455;-85
2023/09/28 01:08:22;;;;;;;4.13;3.83;;;21.00;95.70;;;;;;4957418;28;20445;-85
2023/09/28 01:10:54;;;;;;;4.67;4.27;;;21.00;95.80;;;;;;4954632;28;20468;-86
2023/09/28 01:13:31;;;;;;;4.50;4.07;;;20.70;95.60;;;;;;4961155;28;20463;-86
2023/09/28 01:16:24;;;;;;;4.40;4.00;;;20.60;96.20;;;;;;4966142;28;20498;-84
2023/09/28 01:18:51;;;;;;;4.10;3.80;;;20.70;96.40;;;;;;4970087;28;20448;-87
2023/09/28 01:21:20;;;;;;;3.90;3.60;;;20.60;96.00;;;;;;4971795;28;20489;-87
2023/09/28 01:23:48;;;;;;;4.30;4.00;;;20.50;95.90;;;;;;4971741;28;21717;-86
2023/09/28 01:26:15;;;;;;;3.70;3.40;;;20.60;96.00;;;;;;4975560;28;20863;-85
2023/09/28 01:28:42;;;;;;;3.77;3.47;;;20.80;96.00;;;;;;4976591;28;20480;-85
2023/09/28 01:31:21;;;;;;;4.20;3.90;;;20.60;95.90;;;;;;4995764;28;20530;-84
2023/09/28 01:33:48;;;;;;;4.40;4.00;;;20.60;96.00;;;;;;5000185;28;20535;-86
2023/09/28 01:36:20;;;;;;;3.90;3.60;;;20.60;96.10;;;;;;4997653;28;20479;-88
2023/09/28 01:39:07;;;;;;;4.30;4.00;;;20.50;96.20;;;;;;4981097;28;20456;-84
2023/09/28 01:42:00;;;;;;;4.87;4.43;;;20.50;96.20;;;;;;4971034;28;20650;-83
2023/09/28 01:44:35;;;;;;;4.10;3.70;;;20.80;96.60;;;;;;4966191;28;20517;-84
2023/09/28 01:47:07;;;;;;;5.43;3.93;;;20.80;96.50;;;;;;4973602;28;20471;-83
2023/09/28 01:49:35;;;;;;;4.03;3.50;;;20.40;96.50;;;;;;4980574;28;20467;-86
2023/09/28 01:52:09;;;;;;;4.53;3.80;;;20.20;96.60;;;;;;4975588;28;20499;-85
2023/09/28 01:54:43;;;;;;;4.67;3.93;;;20.40;96.60;;;;;;4993676;28;20484;-87
2023/09/28 01:57:12;;;;;;;3.97;3.70;;;20.40;96.50;;;;;;4990384;28;20497;-86
2023/09/28 01:59:49;;;;;;;4.53;3.90;;;20.20;96.70;;;;;;4970271;28;20482;-86
2023/09/28 02:02:17;;;;;;;4.37;4.00;;;20.30;96.80;;;;;;4967479;28;20607;-86
2023/09/28 02:04:44;;;;;;;4.50;4.00;;;20.30;97.00;;;;;;4961874;28;20460;-84
2023/09/28 02:07:19;;;;;;;4.10;3.80;;;20.30;96.80;;;;;;4975661;28;20486;-86
2023/09/28 02:09:48;;;;;;;3.70;3.50;;;20.40;96.70;;;;;;4961007;28;20457;-85
2023/09/28 02:12:17;;;;;;;4.43;4.13;;;20.30;96.70;;;;;;4962165;28;20447;-84
2023/09/28 02:14:47;;;;;;;3.87;3.57;;;20.10;97.00;;;;;;4957887;28;20468;-83
2023/09/28 02:17:14;;;;;;;3.97;3.70;;;20.50;97.00;;;;;;4958031;28;20610;-84
2023/09/28 02:19:47;;;;;;;4.63;4.07;;;20.20;96.90;;;;;;4985274;28;20504;-89
2023/09/28 02:22:14;;;;;;;3.73;3.50;;;20.20;97.00;;;;;;4982098;28;20483;-86
2023/09/28 02:24:45;;;;;;;4.37;3.60;;;20.40;96.90;;;;;;4991556;28;20451;-86
2023/09/28 02:27:14;;;;;;;4.53;4.13;;;20.20;97.00;;;;;;4990018;28;20472;-87
2023/09/28 02:29:50;;;;;;;3.90;3.60;;;20.40;97.20;;;;;;4992648;28;21082;-86
2023/09/28 02:32:20;;;;;;;3.67;3.37;;;20.30;97.30;;;;;;4988109;28;20454;-86
2023/09/28 02:34:50;;;;;;;4.10;3.80;;;20.20;97.50;;;;;;4974397;28;20558;-86
2023/09/28 02:37:20;;;;;;;4.00;3.70;;;20.10;97.80;;;;;;4972620;28;20475;-83
2023/09/28 02:39:54;;;;;;;3.43;3.23;;;20.10;97.90;;;;;;4971994;28;20812;-82
2023/09/28 02:42:23;;;;;;;4.37;4.00;;;20.00;98.10;;;;;;4972578;28;21093;-84
2023/09/28 02:44:53;;;;;;;3.97;3.47;;;20.30;98.20;;;;;;4971564;28;20456;-83
2023/09/28 02:47:20;;;;;;;4.33;3.93;;;20.10;97.70;;;;;;4968566;28;20487;-85
2023/09/28 02:50:01;;;;;;;3.73;3.43;;;20.30;97.80;;;;;;4968962;28;20565;-84
2023/09/28 02:52:32;;;;;;;3.90;3.60;;;20.40;97.80;;;;;;4969150;28;20523;-85
2023/09/28 02:55:05;;;;;;;4.17;3.77;;;20.60;97.60;;;;;;4968720;28;20452;-87
2023/09/28 02:57:43;;;;;;;3.70;3.47;;;20.60;97.10;;;;;;4969255;28;20534;-85
2023/09/28 03:03:15;;;;;;;4.17;3.80;;;20.50;97.10;;;;;;4972070;28;20460;-86
2023/09/28 03:05:46;;;;;;;4.40;4.00;;;20.60;97.10;;;;;;4970522;28;20535;-86
2023/09/28 03:08:31;;;;;;;4.47;4.03;;;20.60;97.00;;;;;;4970576;28;20464;-87
2023/09/28 03:10:58;;;;;;;3.53;3.33;;;20.60;97.10;;;;;;4971798;28;20687;-86
2023/09/28 03:13:27;;;;;;;4.33;4.00;;;20.40;97.10;;;;;;4970814;28;20466;-87
2023/09/28 03:15:57;;;;;;;4.00;3.60;;;20.20;97.30;;;;;;4969306;28;20997;-88
2023/09/28 03:18:30;;;;;;;4.10;3.80;;;20.00;97.60;;;;;;4965962;28;20543;-86
2023/09/28 03:20:59;;;;;;;4.50;4.10;;;20.00;98.00;;;;;;4967642;28;21123;-87
2023/09/28 03:23:32;;;;;;;3.80;3.50;;;20.30;97.90;;;;;;4966589;28;20485;-84
2023/09/28 03:26:08;;;;;;;4.50;4.10;;;20.10;97.70;;;;;;4967736;28;20490;-85
2023/09/28 03:28:56;;;;;;;3.73;3.43;;;20.20;97.70;;;;;;4969275;28;20441;-85
2023/09/28 03:31:32;;;;;;;4.37;4.07;;;20.20;97.80;;;;;;4967026;28;20502;-84
2023/09/28 03:34:04;;;;;;;4.30;3.90;;;19.90;98.00;;;;;;4967018;28;20499;-85
2023/09/28 03:36:37;;;;;;;4.40;4.10;;;19.80;98.50;;;;;;4968587;28;20615;-85
2023/09/28 03:39:09;;;;;;;21.93;19.73;;;19.90;98.60;;;;;;4966480;28;20456;-86
2023/09/28 03:41:40;;;;;;;4.87;4.20;;;19.70;98.60;;;;;;4965799;28;20484;-86
2023/09/28 03:44:07;;;;;;;4.40;4.00;;;19.70;98.80;;;;;;4968479;28;20455;-84
2023/09/28 03:46:38;;;;;;;4.13;3.80;;;19.70;99.30;;;;;;4971595;28;20522;-87
2023/09/28 03:49:06;;;;;;;4.70;4.23;;;19.60;98.90;;;;;;4973730;28;20484;-84
2023/09/28 03:51:36;;;;;;;4.63;4.20;;;19.50;98.90;;;;;;4967388;28;20464;-85
2023/09/28 03:54:06;;;;;;;4.00;3.70;;;19.50;99.00;;;;;;4962478;28;20488;-84
2023/09/28 03:56:48;;;;;;;4.13;3.83;;;19.50;99.20;;;;;;4969209;28;20479;-87
2023/09/28 03:59:20;;;;;;;4.87;4.37;;;19.50;99.30;;;;;;4972307;28;20471;-86
2023/09/28 04:01:58;;;;;;;4.70;4.40;;;19.40;99.30;;;;;;4979500;28;20564;-85
2023/09/28 04:04:27;;;;;;;4.17;3.87;;;19.40;99.40;;;;;;4975244;28;20452;-86
2023/09/28 04:06:56;;;;;;;4.60;4.20;;;19.40;99.40;;;;;;4990225;28;20535;-88
2023/09/28 04:09:26;;;;;;;4.00;3.70;;;19.40;99.40;;;;;;4995058;28;20450;-86
2023/09/28 04:11:53;;;;;;;4.70;4.40;;;19.40;99.40;;;;;;4993503;28;20542;-84
2023/09/28 04:14:23;;;;;;;4.33;4.03;;;19.50;99.50;;;;;;4995487;28;20459;-85
2023/09/28 04:16:55;;;;;;;5.70;4.13;;;19.50;99.50;;;;;;4994812;28;20468;-86
2023/09/28 04:19:30;;;;;;;5.50;4.50;;;19.50;99.50;;;;;;4997426;28;20443;-86
2023/09/28 04:22:07;;;;;;;4.20;3.90;;;19.50;99.60;;;;;;4994445;28;20491;-87
2023/09/28 04:24:37;;;;;;;4.90;4.40;;;19.50;99.40;;;;;;4996304;28;20459;-86
2023/09/28 04:27:12;;;;;;;3.77;3.47;;;19.50;99.40;;;;;;4976616;28;20479;-86
2023/09/28 04:29:48;;;;;;;4.87;4.17;;;19.50;99.40;;;;;;4974833;28;20467;-85
2023/09/28 04:32:20;;;;;;;4.50;4.17;;;19.50;99.30;;;;;;4981675;28;20494;-85
2023/09/28 04:35:10;;;;;;;6.83;4.53;;;19.60;99.20;;;;;;4974415;28;20507;-85
2023/09/28 04:37:49;;;;;;;4.43;4.00;;;19.50;99.10;;;;;;4972337;28;20550;-84
2023/09/28 04:40:24;;;;;;;5.00;4.57;;;19.50;99.20;;;;;;4976065;28;20448;-84
2023/09/28 04:43:15;;;;;;;4.80;4.40;;;19.40;99.30;;;;;;4974131;28;20444;-86
2023/09/28 04:45:44;;;;;;;4.40;4.10;;;19.30;99.40;;;;;;4975317;28;20526;-84
2023/09/28 04:48:15;;;;;;;5.90;4.13;;;19.60;99.60;;;;;;4974725;28;20440;-84
2023/09/28 04:50:50;;;;;;;4.30;3.90;;;19.30;99.90;;;;;;4978861;28;20993;-86
2023/09/28 04:53:30;;;;;;;5.93;4.20;;;19.30;99.60;;;;;;4979178;28;20456;-85
2023/09/28 04:56:18;;;;;;;4.60;4.30;;;19.30;99.70;;;;;;4988579;28;20538;-84
2023/09/28 04:58:53;;;;;;;6.37;4.47;;;19.20;99.70;;;;;;4978493;28;20456;-83
2023/09/28 05:01:30;;;;;;;4.83;4.43;;;19.10;99.80;;;;;;4991493;28;20573;-85
2023/09/28 05:04:12;;;;;;;5.87;4.43;;;19.20;99.90;;;;;;4994038;28;20431;-86
2023/09/28 05:09:49;;;;;;;5.50;5.00;;;19.10;99.90;;;;;;4972666;28;20462;-86
2023/09/28 05:12:20;;;;;;;6.30;4.63;;;19.10;99.90;;;;;;4982607;28;20902;-86
2023/09/28 05:14:59;;;;;;;7.87;6.20;;;19.10;99.90;;;;;;4984231;28;21230;-87
2023/09/28 05:17:42;;;;;;;4.90;4.50;;;19.00;99.90;;;;;;4998586;28;20514;-89
2023/09/28 05:20:23;;;;;;;5.83;4.80;;;19.00;99.90;;;;;;4986657;28;20565;-86
2023/09/28 05:23:05;;;;;;;4.00;3.70;;;19.00;99.90;;;;;;4986977;28;20558;-88
2023/09/28 05:25:53;;;;;;;5.33;4.87;;;19.00;99.90;;;;;;4982882;28;21815;-86
2023/09/28 05:28:30;;;;;;;4.53;4.23;;;19.00;99.90;;;;;;4983974;28;20492;-86
2023/09/28 05:31:19;;;;;;;6.10;4.10;;;19.00;99.90;;;;;;4985118;28;20488;-86
2023/09/28 05:33:50;;;;;;;5.20;4.23;;;19.00;99.90;;;;;;4983080;28;20440;-86
2023/09/28 05:36:25;;;;;;;5.80;5.30;;;19.20;99.90;;;;;;4986761;28;20499;-83
2023/09/28 05:39:22;;;;;;;7.37;4.93;;;19.40;99.90;;;;;;4979515;28;20436;-84
2023/09/28 05:41:51;;;;;;;5.67;5.17;;;19.30;99.90;;;;;;4973765;28;20487;-87
2023/09/28 05:44:24;;;;;;;9.90;6.10;;;19.50;99.90;;;;;;4967283;28;20452;-82
2023/09/28 05:47:06;;;;;;;6.40;5.80;;;19.60;99.90;;;;;;4979531;28;20537;-87
2023/09/28 05:49:45;;;;;;;5.73;5.23;;;19.50;99.90;;;;;;4972807;28;20528;-86
2023/09/28 05:52:19;;;;;;;5.77;5.30;;;19.50;99.90;;;;;;4980235;28;20489;-84
2023/09/28 05:54:58;;;;;;;6.53;5.93;;;19.30;99.90;;;;;;4978951;28;21141;-86
2023/09/28 05:57:45;;;;;;;5.20;4.73;;;19.20;99.90;;;;;;4983784;28;20466;-87
2023/09/28 06:00:24;;;;;;;5.33;4.83;;;19.30;99.90;;;;;;4975845;28;20634;-84
2023/09/28 06:06:24;;;;;;;9.27;5.90;;;19.20;99.90;;;;;;4975918;28;20480;-86
2023/09/28 06:12:00;;;;;;;5.87;5.37;;;19.20;99.90;;;;;;4966169;28;20469;-85
2023/09/28 06:14:40;;;;;;;7.10;5.00;;;19.20;99.90;;;;;;4973830;28;20545;-85
2023/09/28 06:17:17;;;;;;;5.60;5.10;;;19.40;99.90;;;;;;4979119;28;20580;-86
2023/09/28 06:20:03;;;;;;;6.90;4.40;;;19.40;99.90;;;;;;4978630;28;20963;-85
2023/09/28 06:22:53;;;;;;;4.97;4.57;;;19.70;99.90;;;;;;4973577;28;20485;-85
2023/09/28 06:25:20;;;;;;;8.63;5.50;;;19.90;99.90;;;;;;4967088;28;20455;-84
2023/09/28 06:27:48;;;;;;;7.23;5.37;;;20.00;99.90;;;;;;4976599;28;20475;-84
2023/09/28 06:30:18;;;;;;;5.80;5.20;;;19.80;99.90;;;;;;4973230;28;20451;-85
2023/09/28 06:32:45;;;;;;;5.50;5.00;;;19.80;99.90;;;;;;4973784;28;20451;-83
2023/09/28 06:35:14;;;;;;;5.50;4.90;;;19.60;99.90;;;;;;4974633;28;20494;-85
2023/09/28 06:37:42;;;;;;;5.83;5.23;;;19.80;99.90;;;;;;4972511;28;20546;-82
2023/09/28 06:40:12;;;;;;;5.50;5.00;;;19.80;99.60;;;;;;4973782;28;20519;-86
2023/09/28 06:42:40;;;;;;;5.60;5.10;;;19.90;99.50;;;;;;4973733;28;20491;-85
2023/09/28 06:45:10;;;;;;;5.27;4.87;;;19.90;99.60;;;;;;4975369;28;20452;-87
2023/09/28 06:47:37;;;;;;;5.73;5.23;;;19.90;99.60;;;;;;4977066;28;20480;-86
2023/09/28 06:50:20;;;;;;;5.93;5.33;;;20.10;99.00;;;;;;4980362;28;20494;-88
2023/09/28 06:52:51;;;;;;;5.83;5.33;;;20.00;98.90;;;;;;4981626;28;20543;-85
2023/09/28 06:55:18;;;;;;;6.93;5.43;;;20.00;99.10;;;;;;4979334;28;20458;-85
2023/09/28 06:57:46;;;;;;;6.07;5.47;;;19.90;99.20;;;;;;4979766;28;20448;-87
2023/09/28 07:00:16;;;;;;;7.17;5.50;;;19.90;99.20;;;;;;4989551;28;20444;-86
2023/09/28 07:02:47;;;;;;;6.67;4.77;;;19.80;99.20;;;;;;4992265;28;21743;-86
2023/09/28 07:05:16;;;;;;;5.23;4.73;;;20.10;99.10;;;;;;4995765;28;20562;-86
2023/09/28 07:07:47;;;;;;;7.20;5.17;;;20.30;99.30;;;;;;4999095;28;20523;-86
2023/09/28 07:10:15;;;;;;;5.90;4.77;;;21.40;98.40;;;;;;5000281;28;20510;-88
2023/09/28 07:12:43;;;;;;;5.70;5.10;;;22.80;95.70;;;;;;5000295;28;20463;-87
2023/09/28 07:15:12;;;;;;;4.57;4.27;;;23.50;93.70;;;;;;4992050;28;20589;-86
2023/09/28 07:17:40;;;;;;;4.87;4.47;;;24.60;92.00;;;;;;4984800;28;20523;-85
2023/09/28 07:20:08;;;;;;;5.83;4.87;;;25.10;89.70;;;;;;4972693;28;20523;-86
2023/09/28 07:22:35;;;;;;;5.40;4.90;;;26.50;84.60;;;;;;4983432;28;20499;-84
2023/09/28 07:25:04;;;;;;;5.13;4.73;;;27.20;79.40;;;;;;4970084;28;20538;-85
2023/09/28 07:27:32;;;;;;;7.80;5.37;;;27.60;75.90;;;;;;4948492;28;20483;-88
2023/09/28 07:30:05;;;;;;;6.87;5.73;;;27.90;74.20;;;;;;4967198;28;20491;-85
2023/09/28 07:32:32;;;;;;;9.47;5.00;;;28.20;73.20;;;;;;4964790;28;20538;-85
2023/09/28 07:35:03;;;;;;;10.50;5.33;;;28.60;72.00;;;;;;4966566;28;20459;-86
2023/09/28 07:37:32;;;;;;;6.63;5.10;;;29.10;68.30;;;;;;4965892;28;20929;-86
2023/09/28 07:40:01;;;;;;;6.40;5.70;;;28.30;68.60;;;;;;4965189;28;20469;-86
2023/09/28 07:42:30;;;;;;;6.10;5.50;;;28.20;70.90;;;;;;4967209;28;20494;-85
2023/09/28 07:45:14;;;;;;;4.90;4.40;;;28.70;69.30;;;;;;4964520;28;20500;-86
2023/09/28 07:47:54;;;;;;;5.83;5.20;;;29.40;67.50;;;;;;4974170;28;20464;-87
2023/09/28 07:50:36;;;;;;;4.50;4.10;;;28.80;66.70;;;;;;4967586;28;20464;-87
2023/09/28 07:53:31;;;;;;;5.93;5.33;;;27.80;68.20;;;;;;4962170;28;20448;-84
2023/09/28 07:56:04;;;;;;;6.20;5.40;;;26.60;72.20;;;;;;4966477;28;21417;-85
2023/09/28 07:58:42;;;;;;;6.27;5.23;;;25.70;76.20;;;;;;4967736;28;20455;-84
2023/09/28 08:01:12;;;;;;;7.63;5.10;;;25.40;78.60;;;;;;4966575;28;20456;-83
2023/09/28 08:03:57;;;;;;;5.67;5.00;;;24.90;80.50;;;;;;4964982;28;20479;-85
2023/09/28 08:06:40;;;;;;;8.27;5.10;;;24.40;83.50;;;;;;4960761;28;20488;-86
2023/09/28 08:09:26;;;;;;;8.33;4.80;;;24.00;86.10;;;;;;4956162;28;20557;-87
2023/09/28 08:11:55;;;;;;;7.70;5.00;;;24.10;86.80;;;;;;4958023;28;20469;-88
2023/09/28 08:14:44;;;;;;;7.17;3.87;;;24.10;87.30;;;;;;4956218;28;20496;-85
2023/09/28 08:17:22;;;;;;;4.77;3.83;;;23.90;88.60;;;;;;4957488;28;20485;-86
2023/09/28 08:20:20;;;;;;;4.77;4.37;;;23.80;90.20;;;;;;4950684;28;20460;-85
2023/09/28 08:26:20;;;;;;;4.87;4.17;;;23.60;91.10;;;;;;4955921;28;20490;-88
2023/09/28 08:29:07;;;;;;;6.10;4.07;;;24.00;90.70;;;;;;4957906;28;20714;-86
2023/09/28 08:32:13;;;;;;;5.53;3.63;;;23.70;90.70;;;;;;4958702;28;20449;-87
2023/09/28 08:34:53;;;;;;;4.40;3.43;;;23.40;91.60;;;;;;4960658;28;20454;-86
2023/09/28 08:37:25;;;;;;;5.60;4.10;;;23.40;92.20;;;;;;4958447;28;21027;-84
2023/09/28 08:40:23;;;;;;;6.90;4.00;;;23.30;92.60;;;;;;4957348;28;20452;-83
2023/09/28 08:43:23;;;;;;;4.60;3.47;;;23.20;93.10;;;;;;4959029;28;20851;-87
2023/09/28 08:46:20;;;;;;;5.90;4.33;;;23.20;93.40;;;;;;4969309;28;20455;-88
2023/09/28 08:49:04;;;;;;;5.80;3.70;;;23.20;93.50;;;;;;4955300;28;20463;-86
2023/09/28 08:51:47;;;;;;;3.83;3.27;;;23.10;93.60;;;;;;4959076;28;20527;-87
2023/09/28 08:54:25;;;;;;;4.83;3.83;;;23.10;94.10;;;;;;4960866;28;20456;-85
2023/09/28 08:57:28;;;;;;;5.10;4.60;;;23.10;93.90;;;;;;4958768;28;20476;-85
2023/09/28 09:00:14;;;;;;;4.03;3.63;;;23.00;94.40;;;;;;4963633;28;21287;-87
2023/09/28 09:03:04;;;;;;;5.80;4.30;;;23.30;94.70;;;;;;4959359;28;20571;-87
2023/09/28 09:06:06;;;;;;;;;;;;;;;;;;;;;
2023/09/28 09:08:56;;;;;;;4.83;4.40;;;23.40;94.00;;;;;;4975364;28;20499;-83
2023/09/28 09:11:48;;;;;;;4.60;3.93;;;23.10;94.20;;;;;;4973922;28;21878;-85
2023/09/28 09:14:47;;;;;;;4.07;3.50;;;22.90;94.70;;;;;;4987298;28;20458;-86
2023/09/28 09:17:35;;;;;;;4.83;3.90;;;22.70;95.10;;;;;;5001924;28;20475;-87
2023/09/28 09:20:09;;;;;;;5.53;4.13;;;22.70;95.40;;;;;;5014422;28;20529;-86
2023/09/28 09:22:55;;;;;;;;;;;;;;;;;;;;;
2023/09/28 09:25:54;;;;;;;5.10;3.83;;;23.00;95.50;;;;;;5016179;28;20472;-88
2023/09/28 09:29:00;;;;;;;5.10;3.83;;;23.10;95.10;;;;;;5003942;28;20474;-85
2023/09/28 09:31:52;;;;;;;5.00;4.20;;;23.20;94.80;;;;;;4989966;28;20446;-83
2023/09/28 09:34:53;;;;;;;;;;;;;;;;;;;;;
2023/09/28 09:38:01;;;;;;;5.33;4.20;;;23.50;94.40;;;;;;4997735;28;20485;-85
2023/09/28 09:40:39;;;;;;;6.70;4.90;;;23.50;94.10;;;;;;4996782;28;20446;-87
2023/09/28 09:43:10;;;;;;;4.27;3.87;;;23.50;94.10;;;;;;5005473;28;20492;-88
2023/09/28 09:45:58;;;;;;;6.60;4.33;;;23.70;94.10;;;;;;5008765;28;20549;-86
2023/09/28 09:48:32;;;;;;;5.20;4.33;;;24.50;92.60;;;;;;5003292;28;20537;-86
2023/09/28 09:51:23;;;;;;;4.93;4.50;;;24.80;91.90;;;;;;4998328;28;20542;-82
2023/09/28 09:54:11;;;;;;;5.43;4.80;;;24.60;91.80;;;;;;5009439;28;20463;-87
2023/09/28 09:56:46;;;;;;;6.00;5.20;;;24.50;91.60;;;;;;5016408;28;20470;-85
2023/09/28 09:59:28;;;;;;;8.00;5.47;;;24.20;92.10;;;;;;5012109;28;20522;-85
2023/09/28 10:02:49;;;;;;;5.53;4.20;;;23.90;92.70;;;;;;5005112;28;20532;-86
2023/09/28 10:05:30;;;;;;;5.20;4.80;;;23.80;93.10;;;;;;4999063;28;22610;-86
2023/09/28 10:08:24;;;;;;;10.43;6.50;;;23.90;93.00;;;;;;4984918;28;20462;-86
2023/09/28 10:11:05;;;;;;;8.47;5.00;;;23.70;92.90;;;;;;4988761;28;20464;-84
2023/09/28 10:13:39;;;;;;;6.67;4.47;;;23.70;93.10;;;;;;4987479;28;20444;-86
2023/09/28 10:16:15;;;;;;;5.40;4.17;;;23.40;93.30;;;;;;4989335;28;20534;-85
2023/09/28 10:19:04;;;;;;;5.53;4.13;;;23.50;93.50;;;;;;4986661;28;20443;-86
2023/09/28 10:21:56;;;;;;;5.73;4.40;;;23.70;93.30;;;;;;4998685;28;20735;-85
2023/09/28 10:24:35;;;;;;;4.80;4.23;;;23.70;93.00;;;;;;4985939;28;20809;-86
2023/09/28 10:27:12;;;;;;;5.67;4.50;;;24.40;92.50;;;;;;4984932;28;20502;-87
2023/09/28 10:29:44;;;;;;;7.33;3.93;;;24.10;92.20;;;;;;4985693;28;20473;-86
2023/09/28 10:32:30;;;;;;;4.23;3.83;;;24.00;92.80;;;;;;4986900;28;20470;-86
2023/09/28 10:35:20;;;;;;;5.70;4.40;;;24.30;92.90;;;;;;4980470;28;21012;-85
2023/09/28 10:38:31;;;;;;;5.03;3.80;;;25.10;91.70;;;;;;4957217;28;20472;-89
2023/09/28 10:41:04;;;;;;;5.17;4.10;;;26.10;89.70;;;;;;4975314;28;20550;-87
2023/09/28 10:43:42;;;;;;;6.80;3.87;;;26.80;86.50;;;;;;4991185;28;20515;-86
2023/09/28 10:46:12;;;;;;;6.87;3.97;;;26.70;84.40;;;;;;4985464;28;20486;-86
2023/09/28 10:48:48;;;;;;;4.60;3.53;;;26.20;85.20;;;;;;4991214;28;20455;-86
2023/09/28 10:51:18;;;;;;;4.50;4.10;;;25.60;87.10;;;;;;4983834;28;20469;-87
2023/09/28 10:53:56;;;;;;;4.30;3.10;;;25.70;87.70;;;;;;4983081;28;20551;-86
2023/09/28 10:56:54;;;;;;;5.23;3.47;;;25.80;87.50;;;;;;4979848;28;20600;-87
2023/09/28 10:59:53;;;;;;;3.67;3.17;;;26.00;86.50;;;;;;4946063;28;20497;-87
2023/09/28 11:02:41;;;;;;;5.60;3.20;;;26.10;85.90;;;;;;4980000;28;20502;-87
2023/09/28 11:05:14;;;;;;;5.33;3.90;;;26.30;85.60;;;;;;4983021;28;20463;-84
2023/09/28 11:07:57;;;;;;;3.90;3.50;;;26.60;83.90;;;;;;4977951;28;21039;-85
2023/09/28 11:10:50;;;;;;;4.00;3.60;;;26.70;83.70;;;;;;4988220;28;20458;-88
2023/09/28 11:13:57;;;;;;;4.90;3.20;;;26.70;83.10;;;;;;4983887;28;20451;-86
2023/09/28 11:16:34;;;;;;;3.37;3.07;;;27.00;82.40;;;;;;4983396;28;20491;-86
2023/09/28 11:19:13;;;;;;;3.50;3.20;;;27.20;80.40;;;;;;4982504;28;20451;-85
2023/09/28 11:21:58;;;;;;;3.60;2.60;;;27.10;81.10;;;;;;4986099;28;20467;-88
2023/09/28 11:24:44;;;;;;;3.80;3.20;;;27.60;80.00;;;;;;4981912;28;20478;-85
2023/09/28 11:27:24;;;;;;;3.13;2.90;;;28.70;74.70;;;;;;4983211;28;20481;-83
2023/09/28 11:30:20;;;;;;;3.97;3.57;;;27.80;75.80;;;;;;4984688;28;20486;-85
2023/09/28 11:33:08;;;;;;;7.30;3.77;;;26.90;78.50;;;;;;4982029;28;20470;-86
2023/09/28 11:35:39;;;;;;;4.40;3.80;;;26.20;81.80;;;;;;4986256;28;20473;-87
2023/09/28 11:38:24;;;;;;;4.27;3.10;;;26.10;84.30;;;;;;4985818;28;20455;-83
2023/09/28 11:41:21;;;;;;;5.43;3.70;;;25.80;84.30;;;;;;4979299;28;20451;-83
2023/09/28 11:44:08;;;;;;;5.97;4.27;;;26.20;84.60;;;;;;4978757;28;20486;-84
2023/09/28 11:47:07;;;;;;;4.33;3.87;;;26.50;82.50;;;;;;4979685;28;20463;-86
2023/09/28 11:50:09;;;;;;;4.50;3.60;;;27.00;82.20;;;;;;4981718;28;20491;-86
2023/09/28 11:52:44;;;;;;;5.17;3.30;;;27.20;80.70;;;;;;4991508;28;20451;-84
2023/09/28 11:55:23;;;;;;;3.87;3.47;;;27.40;80.00;;;;;;4985187;28;20489;-84
2023/09/28 11:57:59;;;;;;;6.20;3.83;;;27.00;80.10;;;;;;4974864;28;20464;-85
2023/09/28 12:01:05;;;;;;;6.03;4.60;;;26.80;81.50;;;;;;4979298;28;20500;-84
2023/09/28 12:03:38;;;;;;;5.87;3.77;;;26.60;81.80;;;;;;4976382;28;20490;-86
2023/09/28 12:06:16;;;;;;;3.73;3.00;;;26.70;82.80;;;;;;4959724;28;21683;-84
2023/09/28 12:08:58;;;;;;;3.53;3.10;;;27.20;81.60;;;;;;4977980;28;21099;-83
2023/09/28 12:11:58;;;;;;;;;;;;;;;;;;;;;
2023/09/28 12:14:44;;;;;;;6.07;4.00;;;27.70;78.40;;;;;;4981263;28;20522;-83
2023/09/28 12:17:35;;;;;;;3.87;3.37;;;27.40;78.60;;;;;;4986279;28;20467;-85
2023/09/28 12:25:10;;;;;;;;;;;;;;;;;;;;;
2023/09/28 12:27:49;;;;;;;4.20;3.80;;;27.20;78.40;;;;;;5021432;23;20546;-87
2023/09/28 12:30:29;;;;;;;4.10;3.70;;;27.50;78.80;;;;;;5017618;28;20536;-86
2023/09/28 12:33:22;;;;;;;5.60;4.07;;;27.80;77.50;;;;;;5016121;28;20453;-85
2023/09/28 12:36:27;;;;;;;4.53;2.90;;;28.00;76.50;;;;;;5006496;28;20520;-86
2023/09/28 12:39:10;;;;;;;4.17;3.50;;;27.70;76.60;;;;;;4989677;28;20448;-85
2023/09/28 12:41:58;;;;;;;4.47;2.97;;;27.30;77.20;;;;;;4993567;28;20458;-85
2023/09/28 12:44:33;;;;;;;4.10;2.97;;;27.30;77.60;;;;;;4988496;28;20535;-85
2023/09/28 12:47:11;;;;;;;3.97;3.57;;;27.30;77.90;;;;;;5001466;28;20474;-87
2023/09/28 12:50:11;;;;;;;4.13;3.43;;;27.30;77.60;;;;;;5014276;28;20461;-86
2023/09/28 12:52:47;;;;;;;5.47;4.57;;;28.10;76.90;;;;;;4987034;28;20527;-88
2023/09/28 12:55:38;;;;;;;3.80;3.50;;;28.30;75.90;;;;;;4998208;28;20489;-86
2023/09/28 12:58:27;;;;;;;5.03;3.80;;;28.20;75.80;;;;;;4980632;28;20478;-86
2023/09/28 13:01:13;;;;;;;4.53;3.50;;;28.10;75.40;;;;;;4976973;28;20451;-86
2023/09/28 13:03:58;;;;;;;4.87;3.70;;;28.00;75.40;;;;;;4968464;28;20625;-85
2023/09/28 13:06:58;;;;;;;7.20;3.63;;;28.40;74.20;;;;;;4980809;28;20922;-85
2023/09/28 13:09:40;;;;;;;4.83;3.67;;;29.20;73.00;;;;;;4983105;28;20515;-86
2023/09/28 13:12:12;;;;;;;5.63;3.40;;;29.70;70.70;;;;;;4978189;28;20530;-87
2023/09/28 13:14:53;;;;;;;4.30;3.73;;;29.70;69.60;;;;;;4981804;28;20461;-87
2023/09/28 13:17:32;;;;;;;7.10;3.50;;;29.20;70.00;;;;;;4989011;28;20482;-85
2023/09/28 13:20:39;;;;;;;4.00;3.50;;;28.80;71.00;;;;;;4988630;28;20458;-86
2023/09/28 13:23:19;;;;;;;4.67;3.20;;;28.60;72.00;;;;;;4944753;28;20510;-86
2023/09/28 13:26:08;;;;;;;6.47;3.60;;;28.00;73.60;;;;;;4986679;28;20485;-87
2023/09/28 13:28:57;;;;;;;6.43;3.60;;;28.10;74.10;;;;;;4987342;28;22038;-86
2023/09/28 13:31:43;;;;;;;5.63;4.03;;;27.80;74.10;;;;;;4979050;28;20455;-87
2023/09/28 13:34:55;;;;;;;6.20;4.50;;;27.70;75.80;;;;;;4988782;28;20504;-87
2023/09/28 13:38:46;;;;;;;;;;;;;;;;;;;;;
2023/09/28 13:41:40;;;;;;;6.20;4.00;;;27.30;77.10;;;;;;4975234;28;20550;-85
2023/09/28 13:45:04;;;;;;;5.83;3.37;;;27.10;77.70;;;;;;4982536;28;20533;-87
2023/09/28 13:47:47;;;;;;;6.80;3.57;;;26.90;78.60;;;;;;4999262;28;20489;-88
2023/09/28 13:50:28;;;;;;;4.10;3.27;;;26.90;78.80;;;;;;5003845;28;20951;-85
2023/09/28 13:52:55;;;;;;;5.17;3.97;;;27.10;78.50;;;;;;4982928;28;20470;-86
2023/09/28 13:55:39;;;;;;;5.83;3.70;;;27.20;78.30;;;;;;4978151;28;20454;-86
2023/09/28 13:58:14;;;;;;;3.67;3.30;;;27.20;78.20;;;;;;4982897;28;20809;-86
2023/09/28 14:01:34;;;;;;;4.37;3.43;;;27.30;77.50;;;;;;4981025;28;20469;-85
2023/09/28 14:04:36;;;;;;;7.73;4.43;;;27.70;76.60;;;;;;4965845;28;20489;-87
2023/09/28 14:07:16;;;;;;;3.83;3.13;;;28.10;75.20;;;;;;4980233;28;20479;-85
2023/09/28 14:09:59;;;;;;;3.97;3.57;;;27.50;76.70;;;;;;4994044;28;20423;-85
2023/09/28 14:13:04;;;;;;;4.43;3.97;;;27.40;77.40;;;;;;5008747;28;20435;-87
2023/09/28 14:16:15;;;;;;;5.50;3.60;;;27.70;77.70;;;;;;5016085;28;20649;-88
2023/09/28 14:19:25;;;;;;;4.10;3.70;;;27.60;77.00;;;;;;5009664;28;20456;-87
2023/09/28 14:22:05;;;;;;;5.13;3.90;;;27.40;78.60;;;;;;5008882;28;20803;-85
2023/09/28 14:25:00;;;;;;;5.20;3.80;;;27.50;77.80;;;;;;5007492;28;20490;-86